createdAt,value
2018-06-15T03:09:35.542Z,21.98
2018-06-15T03:12:02.068Z,21.97
2018-06-15T03:14:28.517Z,21.96
2018-06-15T03:16:55.305Z,21.96
2018-06-15T03:19:21.753Z,21.94
2018-06-15T03:21:48.325Z,21.93
2018-06-15T03:24:14.860Z,21.92
2018-06-15T03:26:43.428Z,21.93
2018-06-15T03:29:09.884Z,21.93
2018-06-15T03:31:36.508Z,21.95
2018-06-15T03:34:02.979Z,21.95
2018-06-15T03:36:29.769Z,21.95
2018-06-15T03:38:56.261Z,21.93
2018-06-15T03:41:23.498Z,21.92
2018-06-15T03:43:50.314Z,21.93
2018-06-15T03:46:16.774Z,21.92
2018-06-15T03:48:43.260Z,21.91
2018-06-15T03:51:09.712Z,21.91
2018-06-15T03:53:36.658Z,21.91
2018-06-15T03:56:03.446Z,21.91
2018-06-15T03:58:29.914Z,21.93
2018-06-15T04:00:56.679Z,21.91
2018-06-15T04:03:23.164Z,21.91
2018-06-15T04:05:49.700Z,21.90
2018-06-15T04:08:16.548Z,21.90
2018-06-15T04:10:43.028Z,21.91
2018-06-15T04:13:09.486Z,21.89
2018-06-15T04:15:35.932Z,21.90
2018-06-15T04:18:02.670Z,21.90
2018-06-15T04:20:29.118Z,21.90
2018-06-15T04:22:55.617Z,21.89
2018-06-15T04:25:22.452Z,21.88
2018-06-15T04:27:48.960Z,21.88
2018-06-15T04:30:15.422Z,21.89
2018-06-15T04:32:42.152Z,21.90
2018-06-15T04:35:09.477Z,21.91
2018-06-15T04:37:35.946Z,21.89
2018-06-15T04:40:02.694Z,21.90
2018-06-15T04:42:29.148Z,21.90
2018-06-15T04:44:55.597Z,21.91
2018-06-15T04:47:22.360Z,21.90
2018-06-15T04:49:48.804Z,21.93
2018-06-15T04:52:15.244Z,21.91
2018-06-15T04:54:41.977Z,21.90
2018-06-15T04:57:08.436Z,21.91
2018-06-15T04:59:34.880Z,21.91
2018-06-15T05:02:01.663Z,21.91
2018-06-15T05:04:28.147Z,21.91
2018-06-15T05:06:54.628Z,21.92
2018-06-15T05:09:21.375Z,21.95
2018-06-15T05:11:48.625Z,21.96
2018-06-15T05:14:15.068Z,21.93
2018-06-15T05:16:41.803Z,21.94
2018-06-15T05:19:08.257Z,21.92
2018-06-15T05:21:34.716Z,21.91
2018-06-15T05:24:01.457Z,21.92
2018-06-15T05:26:27.950Z,21.91
2018-06-15T05:28:54.409Z,21.91
2018-06-15T05:31:24.508Z,21.91
2018-06-15T05:33:51.488Z,21.91
2018-06-15T05:36:17.929Z,21.91
2018-06-15T05:38:44.379Z,21.91
2018-06-15T05:41:10.832Z,21.92
2018-06-15T05:43:37.565Z,21.92
2018-06-15T05:46:04.025Z,21.90
2018-06-15T05:48:30.493Z,21.90
2018-06-15T05:50:57.233Z,21.90
2018-06-15T05:53:24.363Z,21.90
2018-06-15T05:55:50.828Z,21.82
2018-06-15T05:58:18.985Z,21.63
2018-06-15T06:00:45.439Z,21.45
2018-06-15T06:03:11.897Z,21.47
2018-06-15T06:05:38.649Z,21.36
2018-06-15T06:08:05.233Z,21.32
2018-06-15T06:10:31.701Z,21.39
2018-06-15T06:12:58.457Z,21.45
2018-06-15T06:15:24.914Z,21.61
2018-06-15T06:17:51.376Z,21.67
2018-06-15T06:20:18.128Z,21.74
2018-06-15T06:22:44.576Z,21.83
2018-06-15T06:25:15.164Z,21.94
2018-06-15T06:27:41.991Z,22.08
2018-06-15T06:30:08.453Z,22.10
2018-06-15T06:32:34.942Z,22.15
2018-06-15T06:35:03.104Z,22.11
2018-06-15T06:37:29.560Z,22.08
2018-06-15T06:39:56.001Z,22.04
2018-06-15T06:42:22.750Z,22.00
2018-06-15T06:44:49.226Z,21.95
2018-06-15T06:47:15.673Z,21.94
2018-06-15T06:49:43.052Z,21.94
2018-06-15T06:52:09.515Z,21.93
2018-06-15T06:54:35.973Z,21.91
2018-06-15T06:57:03.388Z,21.90
2018-06-15T06:59:29.866Z,21.91
2018-06-15T07:01:56.326Z,21.91
2018-06-15T07:04:23.080Z,21.91
2018-06-15T07:06:49.632Z,21.91
2018-06-15T07:09:16.104Z,21.89
2018-06-15T07:11:42.879Z,21.90
2018-06-15T07:14:09.364Z,21.88
2018-06-15T07:16:35.837Z,21.91
2018-06-15T07:19:02.584Z,21.89
2018-06-15T07:21:29.049Z,21.88
2018-06-15T07:23:56.465Z,21.89
2018-06-15T07:26:24.175Z,21.94
2018-06-15T07:28:50.660Z,21.94
2018-06-15T07:31:17.129Z,21.96
2018-06-15T07:33:44.323Z,21.98
2018-06-15T07:36:10.773Z,21.98
2018-06-15T07:38:37.557Z,22.00
2018-06-15T07:41:04.313Z,22.03
2018-06-15T07:43:30.797Z,22.04
2018-06-15T07:45:57.257Z,22.03
2018-06-15T07:48:24.011Z,21.97
2018-06-15T07:50:50.481Z,21.92
2018-06-15T07:53:16.939Z,21.92
2018-06-15T07:55:44.388Z,21.92
2018-06-15T07:58:10.843Z,21.92
2018-06-15T08:00:37.292Z,21.92
2018-06-15T08:03:04.059Z,21.93
2018-06-15T08:05:31.179Z,21.92
2018-06-15T08:07:57.649Z,21.94
2018-06-15T08:10:24.437Z,21.96
2018-06-15T08:12:53.048Z,21.97
2018-06-15T08:15:19.533Z,21.98
2018-06-15T08:17:46.318Z,21.98
2018-06-15T08:20:12.795Z,21.99
2018-06-15T08:22:39.280Z,22.01
2018-06-15T08:25:06.028Z,21.98
2018-06-15T08:27:32.543Z,22.03
2018-06-15T08:29:59.052Z,22.06
2018-06-15T08:32:25.807Z,22.08
2018-06-15T08:34:52.267Z,22.08
2018-06-15T08:37:18.734Z,22.08
2018-06-15T08:39:46.156Z,22.09
2018-06-15T08:42:13.632Z,22.10
2018-06-15T08:44:40.093Z,22.08
2018-06-15T08:47:07.614Z,22.08
2018-06-15T08:49:34.221Z,22.10
2018-06-15T08:52:00.674Z,22.08
2018-06-15T08:54:27.423Z,22.09
2018-06-15T08:56:53.881Z,22.10
2018-06-15T08:59:20.347Z,22.11
2018-06-15T09:01:47.102Z,22.10
2018-06-15T09:04:13.623Z,22.08
2018-06-15T09:06:40.089Z,22.09
2018-06-15T09:09:06.545Z,22.05
2018-06-15T09:11:33.049Z,22.04
2018-06-15T09:14:00.501Z,22.04
2018-06-15T09:16:26.985Z,22.04
2018-06-15T09:18:54.200Z,22.04
2018-06-15T09:21:20.958Z,22.06
2018-06-15T09:23:47.396Z,22.05
2018-06-15T09:26:13.882Z,22.03
2018-06-15T09:28:40.613Z,22.03
2018-06-15T09:31:07.065Z,22.01
2018-06-15T09:33:33.553Z,22.00
2018-06-15T09:36:00.316Z,22.00
2018-06-15T09:38:26.771Z,22.01
2018-06-15T09:40:53.237Z,22.01
2018-06-15T09:43:20.490Z,22.05
2018-06-15T09:45:47.234Z,22.06
2018-06-15T09:48:13.692Z,22.09
2018-06-15T09:50:40.434Z,22.12
2018-06-15T09:53:07.546Z,22.12
2018-06-15T09:55:35.876Z,22.12
2018-06-15T09:58:02.622Z,22.11
2018-06-15T10:00:30.298Z,22.10
2018-06-15T10:02:56.760Z,22.09
2018-06-15T10:05:23.481Z,22.06
2018-06-15T10:07:49.950Z,22.07
2018-06-15T10:10:16.413Z,22.08
2018-06-15T10:12:43.445Z,22.08
2018-06-15T10:15:10.568Z,22.08
2018-06-15T10:17:37.041Z,22.07
2018-06-15T10:20:03.823Z,22.06
2018-06-15T10:22:30.328Z,22.06
2018-06-15T10:24:56.808Z,22.05
2018-06-15T10:27:24.501Z,22.05
2018-06-15T10:29:51.840Z,22.06
2018-06-15T10:32:18.278Z,22.05
2018-06-15T10:34:45.041Z,22.02
2018-06-15T10:37:11.500Z,22.03
2018-06-15T10:39:39.628Z,22.02
2018-06-15T10:42:06.363Z,22.03
2018-06-15T10:44:32.817Z,22.04
2018-06-15T10:46:59.276Z,22.04
2018-06-15T10:49:26.064Z,22.04
2018-06-15T10:51:52.524Z,22.04
2018-06-15T10:54:18.984Z,22.02
2018-06-15T10:56:45.724Z,22.02
2018-06-15T10:59:13.423Z,22.06
2018-06-15T11:01:39.865Z,22.05
2018-06-15T11:04:06.609Z,22.04
2018-06-15T11:06:33.040Z,22.03
2018-06-15T11:08:59.534Z,22.03
2018-06-15T11:11:26.339Z,22.04
2018-06-15T11:13:52.789Z,22.05
2018-06-15T11:16:20.974Z,22.05
2018-06-15T11:18:48.482Z,22.05
2018-06-15T11:21:14.920Z,22.07
2018-06-15T11:23:41.372Z,22.07
2018-06-15T11:26:10.628Z,22.07
2018-06-15T11:28:37.398Z,22.08
2018-06-15T11:31:04.696Z,22.10
2018-06-15T11:33:32.987Z,22.10
2018-06-15T11:35:59.441Z,22.08
2018-06-15T11:38:25.951Z,22.06
2018-06-15T11:40:52.705Z,22.07
2018-06-15T11:43:19.801Z,22.07
2018-06-15T11:45:46.237Z,22.07
2018-06-15T11:48:13.880Z,22.05
2018-06-15T11:50:40.468Z,22.08
2018-06-15T11:53:06.964Z,22.06
2018-06-15T11:55:33.705Z,22.07
2018-06-15T11:58:00.152Z,22.10
2018-06-15T12:00:26.665Z,22.09
2018-06-15T12:02:53.397Z,22.08
2018-06-15T12:05:19.833Z,22.08
2018-06-15T12:07:47.343Z,22.09
2018-06-15T12:10:14.621Z,22.08
2018-06-15T12:12:41.063Z,22.11
2018-06-15T12:15:07.820Z,22.10
2018-06-15T12:17:34.308Z,22.11
2018-06-15T12:20:00.779Z,22.07
2018-06-15T12:22:28.363Z,22.07
2018-06-15T12:24:54.808Z,22.08
2018-06-15T12:27:22.418Z,22.08
2018-06-15T12:29:49.177Z,22.08
2018-06-15T12:32:15.637Z,22.07
2018-06-15T12:34:42.111Z,22.08
2018-06-15T12:37:09.401Z,22.09
2018-06-15T12:42:03.098Z,22.10
2018-06-15T12:44:29.831Z,22.10
2018-06-15T12:46:56.472Z,22.10
2018-06-15T12:49:23.525Z,22.12
2018-06-15T12:51:50.311Z,22.12
2018-06-15T12:54:16.771Z,22.12
2018-06-15T12:59:09.854Z,22.12
2018-06-15T13:01:36.379Z,22.10
2018-06-15T13:04:02.843Z,22.10
2018-06-15T13:06:30.265Z,22.10
2018-06-15T13:08:56.712Z,22.10
2018-06-15T13:11:23.160Z,22.12
2018-06-15T13:13:49.900Z,22.13
2018-06-15T13:16:16.340Z,22.20
2018-06-15T13:18:42.781Z,22.20
2018-06-15T13:21:09.531Z,22.19
2018-06-15T13:23:36.758Z,22.20
2018-06-15T13:26:03.192Z,22.21
2018-06-15T13:28:29.933Z,22.21
2018-06-15T13:30:56.413Z,22.21
2018-06-15T13:33:23.689Z,22.21
2018-06-15T13:35:50.440Z,22.21
2018-06-15T13:38:16.889Z,22.21
2018-06-15T13:40:43.349Z,22.23
2018-06-15T13:43:11.080Z,22.25
2018-06-15T13:48:10.401Z,22.18
2018-06-15T13:50:37.174Z,22.19
2018-06-15T13:53:03.633Z,22.15
2018-06-15T13:55:30.128Z,22.16
2018-06-15T13:57:56.874Z,22.14
2018-06-15T14:00:23.385Z,22.14
2018-06-15T14:02:49.836Z,22.16
2018-06-15T14:05:17.784Z,22.17
2018-06-15T14:07:44.843Z,22.17
2018-06-15T14:10:11.286Z,22.21
2018-06-15T14:12:38.518Z,22.22
2018-06-15T14:15:05.512Z,22.23
2018-06-15T14:17:32.864Z,22.22
2018-06-15T14:19:59.612Z,22.21
2018-06-15T14:22:26.209Z,22.23
2018-06-15T14:24:52.661Z,22.24
2018-06-15T14:27:19.437Z,22.23
2018-06-15T14:29:47.384Z,22.22
2018-06-15T14:32:13.849Z,22.24
2018-06-15T14:34:40.889Z,22.24
2018-06-15T14:37:07.358Z,22.25
2018-06-15T14:39:33.799Z,22.27
2018-06-15T14:42:00.542Z,22.27
2018-06-15T14:44:27.026Z,22.25
2018-06-15T14:46:54.463Z,22.27
2018-06-15T14:49:21.225Z,22.26
2018-06-15T14:51:49.208Z,22.24
2018-06-15T14:54:15.652Z,22.25
2018-06-15T14:56:44.582Z,22.26
2018-06-15T14:59:11.034Z,22.28
2018-06-15T15:01:38.477Z,22.28
2018-06-15T15:04:07.701Z,22.33
2018-06-15T15:06:35.612Z,22.42
2018-06-15T15:09:02.065Z,22.46
2018-06-15T15:11:28.531Z,22.46
2018-06-15T15:13:56.076Z,22.47
2018-06-15T15:16:22.838Z,22.46
2018-06-15T15:18:49.326Z,22.47
2018-06-15T15:21:16.616Z,22.50
2018-06-15T16:05:27.425Z,27.17
2018-06-15T16:07:55.828Z,27.46
2018-06-15T16:10:26.371Z,26.33
2018-06-15T16:12:55.158Z,25.27
2018-06-15T16:43:13.417Z,27.87
2018-06-15T16:45:40.688Z,26.45
2018-06-15T16:48:07.784Z,25.85
2018-06-15T16:50:35.032Z,25.59
2018-06-15T16:53:01.840Z,25.12
2018-06-15T16:55:29.698Z,24.78
2018-06-15T16:57:57.231Z,24.70
2018-06-15T17:00:24.085Z,24.80
2018-06-15T17:02:51.469Z,24.93
2018-06-15T17:05:19.617Z,25.07
2018-06-15T17:07:46.320Z,26.31
2018-06-15T17:10:13.230Z,28.10
2018-06-15T17:12:40.142Z,28.55
2018-06-15T17:15:06.814Z,28.72
2018-06-15T17:17:34.594Z,29.39
2018-06-15T17:20:01.167Z,29.72
2018-06-15T17:22:28.612Z,29.21
2018-06-15T17:24:56.553Z,29.78
2018-06-15T17:27:23.219Z,31.20
2018-06-15T17:29:49.911Z,31.62
2018-06-15T17:32:16.766Z,31.52
2018-06-15T17:34:44.385Z,31.62
2018-06-15T17:37:10.955Z,31.78
2018-06-15T17:39:38.977Z,30.84
2018-06-15T17:42:05.569Z,29.40
2018-06-15T17:44:33.533Z,28.04
2018-06-15T17:47:02.317Z,27.07
2018-06-15T17:49:28.783Z,26.56
2018-06-15T17:51:55.238Z,27.28
2018-06-15T17:54:24.056Z,27.89
2018-06-15T17:56:50.572Z,28.25
2018-06-15T17:59:17.144Z,27.05
2018-06-15T18:01:46.455Z,25.91
2018-06-15T18:04:16.445Z,25.11
2018-06-15T19:35:45.179Z,20.66
2018-06-15T19:38:11.648Z,20.53
2018-06-15T19:40:39.263Z,20.41
2018-06-15T19:43:06.078Z,20.30
2018-06-15T19:45:33.054Z,20.16
2018-06-15T19:47:59.512Z,19.97
2018-06-15T19:50:26.277Z,19.77
2018-06-15T19:52:53.528Z,19.67
2018-06-15T19:55:19.991Z,19.62
2018-06-15T19:57:46.740Z,19.60
2018-06-15T20:00:14.580Z,19.58
2018-06-15T20:02:41.033Z,19.54
2018-06-15T20:05:07.823Z,19.54
2018-06-15T20:07:35.116Z,19.50
2018-06-15T20:10:02.513Z,19.49
2018-06-15T20:12:29.446Z,19.44
2018-06-15T20:14:56.427Z,19.43
2018-06-15T20:17:24.037Z,19.42
2018-06-15T20:19:52.273Z,19.46
2018-06-15T20:22:19.464Z,19.49
2018-06-15T20:24:47.162Z,19.52
2018-06-15T20:27:15.011Z,19.48
2018-06-15T20:29:41.468Z,19.50
2018-06-15T20:32:07.922Z,19.50
2018-06-15T20:34:37.613Z,19.50
2018-06-15T20:37:08.067Z,19.49
2018-06-15T20:39:34.548Z,19.52
2018-06-15T20:42:01.345Z,19.51
2018-06-15T20:44:27.809Z,19.41
2018-06-15T20:46:54.261Z,19.23
2018-06-15T20:49:21.177Z,19.13
2018-06-15T20:51:48.621Z,18.97
2018-06-15T20:54:15.145Z,18.90
2018-06-15T20:56:42.132Z,18.87
2018-06-15T20:59:09.645Z,18.86
2018-06-15T21:01:36.104Z,18.78
2018-06-15T21:04:03.697Z,18.70
2018-06-15T21:06:30.330Z,18.53
2018-06-15T21:08:57.776Z,18.64
2018-06-15T21:11:24.601Z,18.69
2018-06-15T21:20:38.239Z,19.22
2018-06-15T21:23:04.704Z,19.28
2018-06-15T21:25:32.175Z,19.34
2018-06-15T21:27:59.283Z,19.41
2018-06-15T21:30:28.764Z,19.46
2018-06-15T21:32:55.578Z,19.45
2018-06-15T21:35:22.044Z,19.31
2018-06-15T21:37:53.879Z,19.20
2018-06-15T21:40:29.792Z,19.25
2018-06-15T21:42:59.529Z,19.09
2018-06-15T21:45:26.887Z,19.03
2018-06-15T21:47:53.349Z,18.96
2018-06-15T21:50:19.784Z,19.02
2018-06-15T21:52:47.575Z,18.99
2018-06-15T21:55:14.035Z,18.86
2018-06-15T21:57:41.229Z,18.73
2018-06-15T22:00:07.978Z,18.67
2018-06-15T22:02:34.435Z,18.80
2018-06-15T22:05:00.929Z,18.93
2018-06-15T22:07:28.332Z,19.04
2018-06-15T22:09:55.617Z,19.12
2018-06-15T22:12:22.077Z,19.16
2018-06-15T22:14:48.826Z,19.19
2018-06-15T22:17:15.277Z,19.18
2018-06-15T22:19:41.728Z,19.20
2018-06-15T22:22:08.502Z,19.22
2018-06-15T22:24:34.953Z,19.01
2018-06-15T22:27:01.393Z,18.71
2018-06-15T22:29:28.129Z,18.55
2018-06-15T22:31:54.605Z,18.54
2018-06-15T22:34:21.577Z,18.53
2018-06-15T22:36:48.350Z,18.52
2018-06-15T22:39:14.793Z,18.50
2018-06-15T22:41:41.257Z,18.52
2018-06-15T22:44:07.987Z,18.56
2018-06-15T22:46:34.425Z,18.55
2018-06-15T22:49:04.306Z,18.61
2018-06-15T22:51:32.617Z,18.65
2018-06-15T22:53:59.062Z,18.68
2018-06-15T22:56:26.514Z,18.71
2018-06-15T22:58:56.225Z,18.71
2018-06-15T23:01:22.700Z,18.71
2018-06-15T23:03:49.353Z,18.67
2018-06-15T23:06:16.420Z,18.64
2018-06-15T23:08:43.172Z,18.45
2018-06-15T23:11:09.622Z,18.32
2018-06-15T23:13:36.077Z,18.23
2018-06-15T23:16:02.829Z,18.25
2018-06-15T23:18:29.301Z,18.31
2018-06-15T23:20:56.449Z,18.39
2018-06-15T23:23:23.362Z,18.50
2018-06-15T23:25:51.107Z,18.22
2018-06-15T23:28:18.126Z,17.86
2018-06-15T23:30:44.885Z,17.60
2018-06-15T23:33:11.342Z,17.47
2018-06-15T23:35:37.825Z,17.48
2018-06-15T23:38:04.378Z,17.62
2018-06-15T23:40:31.278Z,17.72
2018-06-15T23:42:57.724Z,17.84
2018-06-15T23:45:24.191Z,17.90
2018-06-15T23:47:50.652Z,17.97
2018-06-15T23:50:17.397Z,18.00
2018-06-15T23:52:43.844Z,18.10
2018-06-15T23:55:10.399Z,18.11
2018-06-15T23:57:40.696Z,18.11
